Terminal Aerodrome Forecast
Issued by NWS

Current Version | Previous Version | Text Only | Print | Product List | Glossary On
Versions: 1 2 3 4 5 6 7 8 9 10 11 12 13 14 15 16 17 18 19 20 21 22 23 24 25 26 27 28 29 30 31 32 33 34 35 36 37 38 39 40 41 42 43 44 45 46 47 48 49 50
000
FTUS41 KCTP 032334
TAFAOO
TAF
KAOO 032334Z 0400/0424 16006KT P6SM BKN040
     FM040100 14004KT 6SM -RA OVC025
     FM040500 13004KT 4SM -RA BR OVC007
     FM041600 VRB05KT 4SM BR OVC015
     FM042200 34005KT 5SM HZ BKN030=

USA.gov is the U.S. government's official web portal to all federal, state and local government web resources and services.